Time;durP1;ratioP1;P1;durP2;ratioP2;P2;SDS_P1;SDS_P2;PMS_P1;PMS_P2;Temp;Humidity;BMP_temperature;BMP_pressure;BME280_temperature;BME280_humidity;BME280_pressure;Samples;Min_cycle;Max_cycle;Signal;HPM_P1;HPM_P2
2021/10/08 00:00:47;;;;;;;20.53;18.37;;;13.50;1.00;;;;;;5045356;28;20441;-82
2021/10/08 00:03:14;;;;;;;21.23;19.13;;;13.40;1.00;;;;;;5048455;28;20460;-82
2021/10/08 00:05:42;;;;;;;19.60;17.73;;;13.40;1.00;;;;;;5046450;28;20435;-82
2021/10/08 00:08:09;;;;;;;19.33;17.40;;;13.40;1.00;;;;;;5045335;28;20462;-82
2021/10/08 00:10:36;;;;;;;20.17;17.53;;;13.30;1.00;;;;;;5033200;28;20452;-83
2021/10/08 00:13:02;;;;;;;24.37;19.40;;;13.30;1.00;;;;;;5046535;28;20448;-83
2021/10/08 00:15:30;;;;;;;20.60;18.40;;;13.20;1.00;;;;;;5045494;28;20476;-83
2021/10/08 00:17:57;;;;;;;19.40;17.50;;;13.10;1.00;;;;;;5037026;28;20458;-83
2021/10/08 00:20:23;;;;;;;20.20;18.20;;;13.10;1.00;;;;;;5044587;28;20452;-83
2021/10/08 00:22:50;;;;;;;19.73;17.70;;;13.10;1.00;;;;;;5047982;28;20459;-83
2021/10/08 00:25:17;;;;;;;20.13;18.03;;;13.00;1.00;;;;;;5059676;28;20444;-82
2021/10/08 00:27:43;;;;;;;19.13;17.40;;;13.00;1.00;;;;;;5047161;28;20693;-83
2021/10/08 00:30:10;;;;;;;21.57;19.37;;;13.00;1.00;;;;;;5036118;28;20456;-82
2021/10/08 00:32:38;;;;;;;19.83;17.80;;;12.90;1.00;;;;;;5050237;28;21196;-82
2021/10/08 00:35:06;;;;;;;20.73;18.50;;;12.90;1.00;;;;;;5066914;28;20500;-83
2021/10/08 00:37:33;;;;;;;20.73;18.50;;;12.90;1.00;;;;;;5065711;28;20457;-83
2021/10/08 00:39:59;;;;;;;22.30;19.97;;;12.80;1.00;;;;;;5049505;28;20459;-85
2021/10/08 00:42:28;;;;;;;22.40;20.00;;;12.80;1.00;;;;;;5047277;28;20621;-84
2021/10/08 00:44:55;;;;;;;21.07;18.83;;;12.80;1.00;;;;;;5043845;28;20456;-84
2021/10/08 00:47:21;;;;;;;20.97;18.77;;;12.80;1.00;;;;;;5047044;28;20452;-83
2021/10/08 00:49:49;;;;;;;23.07;20.63;;;12.70;1.00;;;;;;5048152;28;21048;-83
2021/10/08 00:52:16;;;;;;;22.60;20.40;;;12.60;1.00;;;;;;5049466;28;20486;-82
2021/10/08 00:54:42;;;;;;;23.20;19.93;;;12.50;1.00;;;;;;5034383;28;21026;-84
2021/10/08 00:57:09;;;;;;;21.83;19.40;;;12.50;1.00;;;;;;5063854;28;20447;-82
2021/10/08 00:59:36;;;;;;;24.37;21.77;;;12.50;1.00;;;;;;5064767;28;20505;-83
2021/10/08 01:02:05;;;;;;;22.13;19.60;;;12.40;1.00;;;;;;5047811;28;21573;-83
2021/10/08 01:04:33;;;;;;;23.73;21.20;;;12.50;1.00;;;;;;5048522;28;20411;-84
2021/10/08 01:07:01;;;;;;;25.00;22.00;;;12.40;1.00;;;;;;5046137;28;20452;-84
2021/10/08 01:09:28;;;;;;;23.83;21.27;;;12.30;1.00;;;;;;5048753;28;20468;-82
2021/10/08 01:11:55;;;;;;;22.40;20.10;;;12.40;1.00;;;;;;5047947;28;20502;-83
2021/10/08 01:14:21;;;;;;;23.13;20.63;;;12.30;1.00;;;;;;5051045;28;20457;-83
2021/10/08 01:16:48;;;;;;;23.20;20.53;;;12.30;1.00;;;;;;5049954;28;20539;-83
2021/10/08 01:19:16;;;;;;;24.00;21.60;;;12.20;1.00;;;;;;5048762;28;20500;-82
2021/10/08 01:21:45;;;;;;;24.50;22.00;;;12.20;1.00;;;;;;5048533;28;20444;-83
2021/10/08 01:24:11;;;;;;;23.80;21.20;;;12.20;1.00;;;;;;5045360;28;20451;-83
2021/10/08 01:26:38;;;;;;;25.03;22.40;;;12.20;1.00;;;;;;5048683;28;21091;-83
2021/10/08 01:29:08;;;;;;;28.57;23.83;;;12.10;1.00;;;;;;5052149;28;20468;-84
2021/10/08 01:31:35;;;;;;;22.50;20.23;;;12.10;1.00;;;;;;5048789;28;20427;-83
2021/10/08 01:34:01;;;;;;;22.53;20.13;;;12.10;1.00;;;;;;5046634;28;20462;-83
2021/10/08 01:36:28;;;;;;;23.70;20.33;;;12.10;1.00;;;;;;5053500;28;20431;-84
2021/10/08 01:38:56;;;;;;;22.33;19.93;;;12.10;1.00;;;;;;5049728;28;20513;-83
2021/10/08 01:41:23;;;;;;;23.90;21.33;;;12.10;1.00;;;;;;5051764;28;20417;-84
2021/10/08 01:43:50;;;;;;;24.23;21.77;;;12.00;1.00;;;;;;5055070;28;20463;-83
2021/10/08 01:46:16;;;;;;;22.40;20.20;;;12.00;1.00;;;;;;5056571;28;20440;-83
2021/10/08 01:48:43;;;;;;;23.80;21.40;;;12.00;1.00;;;;;;5054519;28;20448;-83
2021/10/08 01:51:10;;;;;;;23.83;21.20;;;12.00;1.00;;;;;;5053320;28;20454;-83
2021/10/08 01:53:36;;;;;;;24.50;21.90;;;11.90;1.00;;;;;;5046827;28;20431;-84
2021/10/08 01:56:05;;;;;;;22.37;20.07;;;11.90;1.00;;;;;;5051747;28;20447;-83
2021/10/08 01:58:32;;;;;;;23.10;20.60;;;11.90;1.00;;;;;;5056815;28;20438;-83
2021/10/08 02:00:58;;;;;;;26.53;23.80;;;11.90;1.00;;;;;;5073494;28;20840;-83
2021/10/08 02:03:25;;;;;;;23.17;20.83;;;11.90;1.00;;;;;;5063080;28;20739;-84
2021/10/08 02:05:52;;;;;;;23.73;21.23;;;11.90;1.00;;;;;;5054981;28;20424;-84
2021/10/08 02:08:19;;;;;;;24.67;22.00;;;11.80;1.00;;;;;;5051689;28;20440;-84
2021/10/08 02:10:45;;;;;;;23.70;21.20;;;11.80;1.00;;;;;;5047930;28;20429;-84
2021/10/08 02:13:13;;;;;;;24.77;21.83;;;11.80;1.00;;;;;;5058344;28;20460;-84
2021/10/08 02:15:40;;;;;;;26.40;23.27;;;11.80;1.00;;;;;;5057263;28;20436;-83
2021/10/08 02:18:07;;;;;;;36.57;30.33;;;11.80;1.00;;;;;;5047815;28;20492;-84
2021/10/08 02:20:33;;;;;;;25.13;21.90;;;11.70;1.00;;;;;;5055076;28;20464;-83
2021/10/08 02:23:00;;;;;;;27.53;24.10;;;11.70;1.00;;;;;;5050105;28;20450;-83
2021/10/08 02:25:26;;;;;;;27.37;23.90;;;11.70;1.00;;;;;;5052507;28;20424;-82
2021/10/08 02:27:53;;;;;;;28.50;24.57;;;11.70;1.00;;;;;;5050939;28;20449;-83
2021/10/08 02:30:21;;;;;;;32.23;26.73;;;11.70;1.00;;;;;;5052282;28;20452;-83
2021/10/08 02:32:48;;;;;;;30.57;26.50;;;11.60;1.00;;;;;;5065088;28;21641;-83
2021/10/08 02:35:15;;;;;;;27.57;24.63;;;11.60;1.00;;;;;;5073055;27;20539;-83
2021/10/08 02:37:41;;;;;;;33.80;25.87;;;11.60;1.00;;;;;;5074388;28;20408;-83
2021/10/08 02:40:09;;;;;;;26.80;24.07;;;11.60;1.00;;;;;;5060508;28;20457;-83
2021/10/08 02:42:36;;;;;;;30.77;24.80;;;11.50;1.00;;;;;;5045802;28;22451;-83
2021/10/08 02:45:03;;;;;;;29.00;24.63;;;11.50;1.00;;;;;;5049574;28;21116;-83
2021/10/08 02:47:31;;;;;;;37.00;33.20;;;11.50;1.00;;;;;;5054283;28;20502;-83
2021/10/08 02:49:57;;;;;;;33.67;27.80;;;11.50;1.00;;;;;;5052330;28;20556;-83
2021/10/08 02:52:24;;;;;;;30.80;27.50;;;11.60;1.00;;;;;;5050440;28;20488;-83
2021/10/08 02:54:51;;;;;;;32.43;29.07;;;11.60;1.00;;;;;;5050361;28;21703;-83
2021/10/08 02:57:17;;;;;;;31.53;28.10;;;11.50;1.00;;;;;;5053108;28;20439;-82
2021/10/08 02:59:44;;;;;;;32.13;28.70;;;11.50;1.00;;;;;;5049184;28;20470;-82
2021/10/08 03:02:11;;;;;;;34.27;30.63;;;11.50;1.00;;;;;;5057371;28;21048;-83
2021/10/08 03:04:40;;;;;;;34.00;30.33;;;11.50;1.00;;;;;;5074829;28;20411;-83
2021/10/08 03:07:07;;;;;;;40.17;33.57;;;11.50;1.00;;;;;;5079346;28;20520;-82
2021/10/08 03:09:33;;;;;;;41.80;33.77;;;11.60;1.00;;;;;;5054593;28;20462;-84
2021/10/08 03:12:00;;;;;;;44.07;34.37;;;11.50;1.00;;;;;;5054153;28;20578;-84
2021/10/08 03:14:26;;;;;;;41.17;32.97;;;11.50;1.00;;;;;;5048688;28;20415;-83
2021/10/08 03:16:53;;;;;;;42.60;33.67;;;11.60;1.00;;;;;;5049705;28;20416;-83
2021/10/08 03:19:20;;;;;;;46.23;35.77;;;11.60;1.00;;;;;;5046689;28;20480;-83
2021/10/08 03:21:48;;;;;;;40.53;33.83;;;11.60;1.00;;;;;;5051404;28;20466;-83
2021/10/08 03:24:15;;;;;;;43.03;34.57;;;11.60;1.00;;;;;;5054534;28;20647;-83
2021/10/08 03:26:42;;;;;;;40.20;33.47;;;11.60;1.00;;;;;;5053823;28;20464;-84
2021/10/08 03:29:08;;;;;;;44.23;33.60;;;11.60;1.00;;;;;;5054200;28;20459;-83
2021/10/08 03:31:35;;;;;;;43.50;33.30;;;11.60;1.00;;;;;;5047456;28;20482;-83
2021/10/08 03:34:03;;;;;;;37.47;32.73;;;11.60;1.00;;;;;;5054345;28;20419;-83
2021/10/08 03:36:34;;;;;;;43.90;35.03;;;11.50;1.00;;;;;;5052415;28;21757;-84
2021/10/08 03:39:03;;;;;;;43.63;34.20;;;11.50;1.00;;;;;;5053510;28;20467;-82
2021/10/08 03:41:29;;;;;;;43.03;33.10;;;11.50;1.00;;;;;;5056413;28;20529;-83
2021/10/08 03:43:56;;;;;;;42.00;33.70;;;11.50;1.00;;;;;;5052651;28;20432;-82
2021/10/08 03:46:32;;;;;;;36.13;30.57;;;11.50;1.00;;;;;;5057728;28;20431;-84
2021/10/08 03:49:15;;;;;;;39.27;31.60;;;11.60;1.00;;;;;;5050995;28;20546;-82
2021/10/08 03:51:43;;;;;;;39.10;31.80;;;11.60;1.00;;;;;;5048803;28;20457;-83
2021/10/08 03:54:11;;;;;;;38.23;30.70;;;11.70;1.00;;;;;;5027302;28;20481;-83
2021/10/08 03:56:38;;;;;;;40.30;33.20;;;11.70;1.00;;;;;;5046731;28;20451;-83
2021/10/08 03:59:05;;;;;;;40.80;32.17;;;11.80;1.00;;;;;;5052281;28;20478;-84
2021/10/08 04:01:32;;;;;;;37.10;29.67;;;11.70;1.00;;;;;;5053896;28;20468;-83
2021/10/08 04:03:59;;;;;;;40.13;30.60;;;11.70;1.00;;;;;;5052058;28;20429;-84
2021/10/08 04:06:29;;;;;;;34.37;30.53;;;11.60;1.00;;;;;;5057589;28;20472;-81
2021/10/08 04:08:56;;;;;;;38.13;30.60;;;11.60;1.00;;;;;;5065025;28;20500;-83
2021/10/08 04:11:24;;;;;;;36.37;29.80;;;11.70;1.00;;;;;;5036206;28;20456;-83
2021/10/08 04:13:52;;;;;;;39.53;31.53;;;11.60;1.00;;;;;;5055548;28;20439;-83
2021/10/08 04:16:19;;;;;;;36.73;30.07;;;11.60;1.00;;;;;;5051960;28;20449;-82
2021/10/08 04:18:46;;;;;;;40.90;32.47;;;11.60;1.00;;;;;;5056784;28;20510;-83
2021/10/08 04:21:13;;;;;;;38.00;31.13;;;11.50;1.00;;;;;;5030637;28;21403;-83
2021/10/08 04:23:40;;;;;;;41.77;32.90;;;11.60;1.00;;;;;;5053702;28;20457;-84
2021/10/08 04:26:07;;;;;;;49.17;35.07;;;11.50;1.00;;;;;;5054090;28;20452;-83
2021/10/08 04:28:35;;;;;;;44.83;33.47;;;11.50;1.00;;;;;;5050369;28;20462;-84
2021/10/08 04:31:02;;;;;;;47.33;34.67;;;11.50;1.00;;;;;;5048124;28;21033;-83
2021/10/08 04:33:30;;;;;;;39.77;33.73;;;11.50;1.00;;;;;;5051062;28;20451;-83
2021/10/08 04:35:59;;;;;;;44.60;35.10;;;11.50;1.00;;;;;;5058327;28;20484;-82
2021/10/08 04:38:27;;;;;;;49.33;36.60;;;11.40;1.00;;;;;;5033491;28;20477;-84
2021/10/08 04:40:56;;;;;;;41.57;34.10;;;11.40;1.00;;;;;;5048637;28;21602;-83
2021/10/08 04:43:23;;;;;;;43.43;34.20;;;11.40;1.00;;;;;;5051223;28;20463;-86
2021/10/08 04:45:51;;;;;;;41.90;35.73;;;11.40;1.00;;;;;;5045681;28;20512;-86
2021/10/08 04:48:18;;;;;;;45.77;34.27;;;11.40;1.00;;;;;;5044693;28;20460;-84
2021/10/08 04:50:45;;;;;;;39.93;32.70;;;11.30;1.00;;;;;;5051954;28;21217;-85
2021/10/08 04:53:14;;;;;;;43.13;33.40;;;11.40;1.00;;;;;;5050341;28;20738;-83
2021/10/08 04:55:41;;;;;;;43.00;34.63;;;11.40;1.00;;;;;;5035214;28;20550;-84
2021/10/08 04:58:08;;;;;;;41.27;33.63;;;11.40;1.00;;;;;;5053926;28;20968;-84
2021/10/08 05:00:35;;;;;;;43.60;34.03;;;11.30;1.00;;;;;;5046729;28;20479;-84
2021/10/08 05:03:08;;;;;;;42.63;35.53;;;11.30;1.00;;;;;;5049993;28;20443;-86
2021/10/08 05:05:35;;;;;;;43.33;34.50;;;11.30;1.00;;;;;;5036266;28;20555;-85
2021/10/08 05:08:06;;;;;;;42.07;33.83;;;11.30;1.00;;;;;;5053885;28;20456;-84
2021/10/08 05:10:36;;;;;;;45.27;34.70;;;11.20;1.00;;;;;;5078552;27;20434;-82
2021/10/08 05:13:05;;;;;;;47.10;36.30;;;11.20;1.00;;;;;;5065918;28;20542;-84
2021/10/08 05:15:31;;;;;;;43.50;35.40;;;11.20;1.00;;;;;;5055379;28;20475;-83
2021/10/08 05:17:59;;;;;;;46.00;34.70;;;11.20;1.00;;;;;;5049130;28;20697;-85
2021/10/08 05:20:27;;;;;;;39.73;34.53;;;11.20;1.00;;;;;;5058945;28;20462;-83
2021/10/08 05:22:53;;;;;;;45.43;33.53;;;11.10;1.00;;;;;;5066279;28;20440;-78
2021/10/08 05:25:20;;;;;;;45.80;34.80;;;11.10;1.00;;;;;;5054363;28;22104;-77
2021/10/08 05:27:47;;;;;;;45.13;36.40;;;11.10;1.00;;;;;;5040494;28;20462;-77
2021/10/08 05:30:15;;;;;;;44.50;38.57;;;11.10;1.00;;;;;;5038252;28;22098;-77
2021/10/08 05:32:42;;;;;;;45.07;35.73;;;11.10;1.00;;;;;;5046223;28;21591;-77
2021/10/08 05:35:11;;;;;;;43.10;35.77;;;11.10;1.00;;;;;;5060504;28;20444;-77
2021/10/08 05:37:39;;;;;;;44.10;35.67;;;11.10;1.00;;;;;;5048837;28;20973;-77
2021/10/08 05:40:07;;;;;;;46.30;35.37;;;11.10;1.00;;;;;;5048606;28;20472;-78
2021/10/08 05:42:34;;;;;;;44.20;34.90;;;11.10;1.00;;;;;;5045297;28;20470;-82
2021/10/08 05:45:01;;;;;;;47.33;35.70;;;11.10;1.00;;;;;;5046719;28;20419;-78
2021/10/08 05:47:28;;;;;;;45.90;36.53;;;11.10;1.00;;;;;;5035317;28;20444;-78
2021/10/08 05:49:54;;;;;;;43.13;34.50;;;11.20;1.00;;;;;;5047407;28;20835;-79
2021/10/08 05:52:21;;;;;;;50.50;36.50;;;11.20;1.00;;;;;;5047456;28;21352;-79
2021/10/08 05:54:49;;;;;;;43.17;36.57;;;11.20;1.00;;;;;;5045401;28;20423;-80
2021/10/08 05:57:16;;;;;;;43.50;35.97;;;11.20;1.00;;;;;;5046104;28;20451;-78
2021/10/08 05:59:44;;;;;;;40.17;34.20;;;11.30;1.00;;;;;;5049916;28;20505;-78
2021/10/08 06:02:11;;;;;;;46.30;36.10;;;11.30;1.00;;;;;;5050645;28;20522;-79
2021/10/08 06:04:37;;;;;;;40.97;36.03;;;11.30;1.00;;;;;;5051414;28;20474;-79
2021/10/08 06:07:06;;;;;;;40.83;34.87;;;11.30;1.00;;;;;;5047804;28;20484;-79
2021/10/08 06:09:33;;;;;;;45.57;36.70;;;11.40;1.00;;;;;;5055019;28;20466;-79
2021/10/08 06:12:02;;;;;;;42.30;34.67;;;11.40;1.00;;;;;;5050611;28;20828;-79
2021/10/08 06:14:29;;;;;;;44.70;35.47;;;11.40;1.00;;;;;;5050177;28;20459;-79
2021/10/08 06:16:56;;;;;;;45.07;36.30;;;11.40;1.00;;;;;;5044196;28;20462;-79
2021/10/08 06:19:22;;;;;;;39.10;34.40;;;11.40;1.00;;;;;;5053206;28;21637;-78
2021/10/08 06:21:49;;;;;;;41.37;34.37;;;11.50;1.00;;;;;;5042078;28;21185;-79
2021/10/08 06:24:16;;;;;;;42.87;33.77;;;11.50;1.00;;;;;;5048402;28;20455;-78
2021/10/08 06:26:42;;;;;;;38.10;33.40;;;11.50;1.00;;;;;;5046514;28;20514;-78
2021/10/08 06:29:10;;;;;;;43.30;36.30;;;11.60;1.00;;;;;;5043764;28;20479;-78
2021/10/08 06:31:37;;;;;;;40.33;33.07;;;11.60;1.00;;;;;;5048013;28;21640;-78
2021/10/08 06:34:03;;;;;;;40.70;34.50;;;11.60;1.00;;;;;;5047591;28;20471;-78
2021/10/08 06:36:31;;;;;;;40.23;33.53;;;11.60;1.00;;;;;;5047429;28;20906;-78
2021/10/08 06:38:57;;;;;;;42.80;33.30;;;11.70;1.00;;;;;;5044781;28;20452;-78
2021/10/08 06:41:24;;;;;;;37.80;33.33;;;11.70;1.00;;;;;;5046528;28;21273;-79
2021/10/08 06:43:51;;;;;;;39.60;33.73;;;11.80;1.00;;;;;;5045266;28;20472;-79
2021/10/08 06:46:20;;;;;;;39.07;34.87;;;11.80;1.00;;;;;;5049231;28;21593;-79
2021/10/08 06:48:46;;;;;;;42.17;34.63;;;11.90;1.00;;;;;;5044825;28;20443;-78
2021/10/08 06:51:13;;;;;;;37.27;32.07;;;12.00;1.00;;;;;;5041908;28;20444;-78
2021/10/08 06:53:40;;;;;;;40.77;33.83;;;12.10;1.00;;;;;;5047073;28;20481;-78
2021/10/08 06:56:07;;;;;;;36.10;31.50;;;12.20;1.00;;;;;;5044203;28;20439;-79
2021/10/08 06:58:34;;;;;;;40.20;32.80;;;12.40;1.00;;;;;;5051371;28;20460;-79
2021/10/08 07:01:01;;;;;;;34.40;30.90;;;12.50;1.00;;;;;;5056088;28;20482;-78
2021/10/08 07:03:29;;;;;;;33.67;30.00;;;12.70;1.00;;;;;;5059223;28;20428;-78
2021/10/08 07:05:55;;;;;;;39.53;31.70;;;12.80;1.00;;;;;;5050717;28;20451;-76
2021/10/08 07:08:22;;;;;;;36.17;30.20;;;12.90;1.00;;;;;;5054710;28;20456;-78
2021/10/08 07:10:49;;;;;;;32.73;29.20;;;12.90;1.00;;;;;;5059723;28;20446;-79
2021/10/08 07:13:16;;;;;;;35.43;30.07;;;12.90;1.00;;;;;;5055421;28;20476;-77
2021/10/08 07:15:43;;;;;;;33.70;28.90;;;12.90;1.00;;;;;;5051328;28;20482;-78
2021/10/08 07:18:14;;;;;;;33.47;28.77;;;12.90;1.00;;;;;;5050834;28;20455;-78
2021/10/08 07:20:45;;;;;;;32.43;29.03;;;13.00;1.00;;;;;;5053846;28;20456;-78
2021/10/08 07:23:11;;;;;;;34.17;28.83;;;13.20;1.00;;;;;;5049857;28;22204;-79
2021/10/08 07:25:38;;;;;;;37.17;29.00;;;13.30;1.00;;;;;;5050518;28;20689;-78
2021/10/08 07:28:05;;;;;;;31.00;27.63;;;13.50;1.00;;;;;;5049034;28;20452;-78
2021/10/08 07:30:31;;;;;;;36.13;29.13;;;13.70;1.00;;;;;;5051695;28;20421;-79
2021/10/08 07:32:58;;;;;;;30.73;27.33;;;13.80;1.00;;;;;;5049246;28;20584;-79
2021/10/08 07:35:25;;;;;;;30.47;27.40;;;13.90;1.00;;;;;;5050272;28;20460;-79
2021/10/08 07:37:53;;;;;;;33.40;28.40;;;14.10;1.00;;;;;;5052271;28;20462;-78
2021/10/08 07:40:19;;;;;;;33.40;28.87;;;14.20;1.00;;;;;;5050780;28;20440;-78
2021/10/08 07:42:46;;;;;;;30.70;26.87;;;14.30;1.00;;;;;;5045419;28;20481;-77
2021/10/08 07:45:13;;;;;;;29.83;26.73;;;14.30;1.00;;;;;;5049773;28;20452;-79
2021/10/08 07:47:40;;;;;;;29.53;26.43;;;14.40;1.00;;;;;;5052209;28;20446;-78
2021/10/08 07:50:09;;;;;;;30.23;27.13;;;14.40;1.00;;;;;;5050908;28;21520;-79
2021/10/08 07:52:36;;;;;;;29.23;26.23;;;14.50;1.00;;;;;;5056498;28;20435;-82
2021/10/08 07:55:04;;;;;;;29.40;25.87;;;14.50;1.00;;;;;;5045697;28;26162;-78
2021/10/08 07:57:31;;;;;;;33.40;28.07;;;14.50;1.00;;;;;;5052427;28;20452;-78
2021/10/08 07:59:58;;;;;;;30.70;27.20;;;14.30;1.00;;;;;;5044745;28;20476;-79
2021/10/08 08:02:28;;;;;;;28.80;25.73;;;14.30;1.00;;;;;;5044457;28;20472;-79
2021/10/08 08:04:55;;;;;;;30.70;26.07;;;14.50;1.00;;;;;;5047914;28;20535;-79
2021/10/08 08:07:22;;;;;;;29.30;26.30;;;14.50;1.00;;;;;;5046112;28;20457;-79
2021/10/08 08:09:49;;;;;;;31.20;27.80;;;14.40;1.00;;;;;;5035437;28;20461;-79
2021/10/08 08:12:17;;;;;;;33.47;28.17;;;14.30;1.00;;;;;;5037090;28;20460;-77
2021/10/08 08:14:45;;;;;;;33.00;28.90;;;14.30;1.00;;;;;;5047702;28;20793;-77
2021/10/08 08:17:12;;;;;;;34.47;28.40;;;14.50;1.00;;;;;;5041050;28;20492;-78
2021/10/08 08:19:39;;;;;;;30.37;27.10;;;14.70;1.00;;;;;;5033274;28;20429;-78
2021/10/08 08:22:06;;;;;;;29.67;26.53;;;14.90;1.00;;;;;;5041042;28;20421;-78
2021/10/08 08:24:34;;;;;;;30.13;27.10;;;14.90;1.00;;;;;;5044057;28;20468;-79
2021/10/08 08:27:02;;;;;;;29.07;25.70;;;15.10;1.00;;;;;;5041895;28;20473;-79
2021/10/08 08:29:29;;;;;;;36.70;27.37;;;15.30;1.00;;;;;;5044639;28;20471;-78
2021/10/08 08:31:57;;;;;;;29.10;26.00;;;15.70;1.00;;;;;;5039192;28;20446;-77
2021/10/08 08:34:25;;;;;;;29.03;25.50;;;16.30;1.00;;;;;;5045989;28;21019;-77
2021/10/08 08:36:52;;;;;;;29.60;24.80;;;16.70;1.00;;;;;;5049638;28;21249;-77
2021/10/08 08:39:20;;;;;;;27.93;24.03;;;16.50;1.00;;;;;;5034651;28;20449;-79
2021/10/08 08:41:47;;;;;;;27.07;24.43;;;16.40;1.00;;;;;;5045842;28;20438;-78
2021/10/08 08:44:13;;;;;;;28.33;23.40;;;16.30;1.00;;;;;;5047297;28;20470;-78
2021/10/08 08:46:41;;;;;;;25.77;22.30;;;16.40;1.00;;;;;;5048354;28;20486;-78
2021/10/08 08:49:08;;;;;;;25.67;22.87;;;17.30;1.00;;;;;;5043769;28;20522;-78
2021/10/08 08:51:35;;;;;;;24.03;21.23;;;18.40;1.00;;;;;;5044230;28;20575;-78
2021/10/08 08:54:03;;;;;;;21.50;19.37;;;19.30;1.00;;;;;;5046171;28;20958;-78
2021/10/08 08:56:30;;;;;;;22.93;20.70;;;20.20;1.00;;;;;;5048916;28;20459;-79
2021/10/08 08:59:00;;;;;;;24.20;20.00;;;20.80;1.00;;;;;;5046779;28;21650;-78
2021/10/08 09:01:27;;;;;;;20.87;18.77;;;21.40;1.00;;;;;;5048970;28;20465;-78
2021/10/08 09:04:07;;;;;;;21.10;17.77;;;22.20;1.00;;;;;;5036567;28;20460;-78
2021/10/08 09:06:36;;;;;;;25.90;19.93;;;22.70;1.00;;;;;;5042937;28;21389;-78
2021/10/08 09:09:15;;;;;;;19.57;17.57;;;23.40;1.00;;;;;;5048025;28;20448;-79
2021/10/08 09:11:42;;;;;;;19.97;17.83;;;23.80;1.00;;;;;;5040314;28;20472;-77
2021/10/08 09:14:17;;;;;;;18.63;16.57;;;24.00;1.00;;;;;;5036582;28;20465;-78
2021/10/08 09:17:07;;;;;;;21.07;17.90;;;24.40;1.00;;;;;;5052661;28;20458;-77
2021/10/08 09:19:54;;;;;;;19.70;16.53;;;24.50;1.00;;;;;;5045495;28;20457;-77
2021/10/08 09:22:23;;;;;;;16.90;14.70;;;24.20;1.00;;;;;;5038054;28;21301;-77
2021/10/08 09:24:50;;;;;;;16.23;14.03;;;23.40;1.00;;;;;;5039142;28;21181;-78
2021/10/08 09:27:19;;;;;;;16.87;13.87;;;23.20;1.00;;;;;;5044058;28;20443;-77
2021/10/08 09:29:52;;;;;;;15.87;14.10;;;22.80;1.00;;;;;;5044338;28;20453;-78
2021/10/08 09:32:20;;;;;;;17.93;13.90;;;21.90;1.00;;;;;;5045851;28;20489;-78
2021/10/08 09:34:48;;;;;;;17.40;12.83;;;21.20;1.00;;;;;;5045075;28;20460;-78
2021/10/08 09:37:17;;;;;;;18.70;14.33;;;21.00;1.00;;;;;;5046945;28;20448;-78
2021/10/08 09:39:50;;;;;;;18.63;12.80;;;20.60;1.00;;;;;;5048905;28;20440;-78
2021/10/08 09:42:19;;;;;;;19.67;13.97;;;20.00;1.00;;;;;;5030555;28;20607;-78
2021/10/08 09:44:48;;;;;;;19.30;13.00;;;19.90;1.00;;;;;;5045848;28;20443;-78
2021/10/08 09:47:17;;;;;;;12.97;11.63;;;19.70;1.00;;;;;;5047810;28;20451;-79
2021/10/08 09:49:46;;;;;;;23.17;14.03;;;19.30;1.00;;;;;;5044363;28;20440;-79
2021/10/08 09:52:27;;;;;;;15.87;12.43;;;18.90;1.00;;;;;;5043579;28;21245;-81
2021/10/08 09:54:55;;;;;;;21.30;16.90;;;18.70;1.00;;;;;;5045633;28;20562;-80
2021/10/08 09:57:22;;;;;;;18.77;13.17;;;18.50;1.00;;;;;;5044316;28;20447;-80
2021/10/08 09:59:50;;;;;;;18.43;12.43;;;18.40;1.00;;;;;;5051602;28;20483;-80
2021/10/08 10:02:19;;;;;;;17.30;11.53;;;18.90;1.00;;;;;;5047061;28;20467;-78
2021/10/08 10:04:48;;;;;;;16.10;10.80;;;19.40;1.00;;;;;;5046734;28;20547;-78
2021/10/08 10:07:16;;;;;;;16.67;10.73;;;19.60;1.00;;;;;;5038812;28;20468;-79
2021/10/08 10:09:44;;;;;;;18.83;11.27;;;20.40;1.00;;;;;;5043035;28;20437;-79
2021/10/08 10:12:12;;;;;;;14.10;10.80;;;21.10;1.00;;;;;;5041303;28;20432;-80
2021/10/08 10:14:40;;;;;;;15.83;10.37;;;21.30;1.00;;;;;;5045775;28;20844;-80
2021/10/08 10:17:08;;;;;;;14.23;11.40;;;21.50;1.00;;;;;;5042898;28;21079;-80
2021/10/08 10:19:38;;;;;;;14.03;11.10;;;21.40;1.00;;;;;;5035858;28;20428;-79
2021/10/08 10:22:05;;;;;;;12.50;9.63;;;21.30;1.00;;;;;;5037292;28;21343;-80
2021/10/08 10:24:35;;;;;;;17.00;9.63;;;21.60;1.00;;;;;;5037127;28;20470;-80
2021/10/08 10:27:03;;;;;;;13.03;11.03;;;22.70;1.00;;;;;;5047697;28;21478;-79
2021/10/08 10:29:30;;;;;;;15.80;11.67;;;23.60;1.00;;;;;;5040107;28;20801;-80
2021/10/08 10:31:57;;;;;;;16.03;11.67;;;23.80;1.00;;;;;;5038942;28;20476;-79
2021/10/08 10:34:24;;;;;;;17.50;12.43;;;23.50;1.00;;;;;;5041966;28;20459;-80
2021/10/08 10:36:50;;;;;;;17.50;11.90;;;22.10;1.00;;;;;;5043339;28;20451;-80
2021/10/08 10:39:21;;;;;;;17.40;13.07;;;21.10;1.00;;;;;;5048018;28;20456;-79
2021/10/08 10:42:13;;;;;;;16.80;11.50;;;20.50;1.00;;;;;;5055128;28;20427;-78
2021/10/08 10:45:14;;;;;;;16.83;11.50;;;19.90;1.00;;;;;;5052383;28;20424;-79
2021/10/08 10:47:46;;;;;;;16.77;12.43;;;20.40;1.00;;;;;;5049281;28;21636;-79
2021/10/08 10:50:17;;;;;;;18.10;12.10;;;21.00;1.00;;;;;;5049308;28;20517;-80
2021/10/08 10:52:49;;;;;;;17.80;11.67;;;21.10;1.00;;;;;;5035040;28;20477;-79
2021/10/08 10:55:16;;;;;;;13.73;12.30;;;21.80;1.00;;;;;;5047049;28;22086;-80
2021/10/08 10:57:58;;;;;;;15.60;11.53;;;23.10;1.00;;;;;;5041099;28;20467;-79
2021/10/08 11:00:41;;;;;;;15.10;11.60;;;23.30;1.00;;;;;;5039829;28;20443;-80
2021/10/08 11:03:18;;;;;;;12.17;10.97;;;23.40;1.00;;;;;;5039930;28;22488;-80
2021/10/08 11:06:19;;;;;;;13.80;11.13;;;24.20;1.00;;;;;;5045905;28;20454;-79
2021/10/08 11:09:20;;;;;;;13.83;10.77;;;25.20;1.00;;;;;;5041787;28;20459;-80
2021/10/08 11:11:47;;;;;;;22.67;11.73;;;26.10;1.00;;;;;;5028655;28;20537;-78
2021/10/08 11:14:19;;;;;;;14.57;11.10;;;26.50;1.00;;;;;;5036738;28;20440;-79
2021/10/08 11:16:47;;;;;;;14.70;13.10;;;27.40;1.00;;;;;;5041362;28;20442;-80
2021/10/08 11:19:37;;;;;;;17.10;11.87;;;28.40;1.00;;;;;;5034540;28;20457;-78
2021/10/08 11:22:04;;;;;;;17.27;11.90;;;28.70;1.00;;;;;;5043051;28;20463;-79
2021/10/08 11:24:30;;;;;;;16.60;10.80;;;28.40;1.00;;;;;;5034698;28;20441;-78
2021/10/08 11:27:00;;;;;;;12.60;11.20;;;28.60;1.00;;;;;;5047350;28;20459;-78
2021/10/08 11:29:29;;;;;;;18.00;12.77;;;29.50;1.00;;;;;;5043838;28;21249;-79
2021/10/08 11:32:04;;;;;;;13.17;9.83;;;29.30;1.00;;;;;;5048849;28;20465;-80
2021/10/08 11:34:31;;;;;;;14.70;10.40;;;30.00;1.00;;;;;;5046231;28;20451;-80
2021/10/08 11:36:59;;;;;;;13.80;10.77;;;30.00;1.00;;;;;;5049651;28;20474;-79
2021/10/08 11:39:26;;;;;;;18.33;11.30;;;29.30;1.00;;;;;;5048538;28;21733;-80
2021/10/08 11:42:10;;;;;;;15.70;10.20;;;29.40;1.00;;;;;;5047037;28;20465;-79
2021/10/08 11:44:41;;;;;;;13.63;10.33;;;29.90;1.00;;;;;;5050952;28;20456;-80
2021/10/08 11:47:14;;;;;;;13.50;10.30;;;30.10;1.00;;;;;;5050062;28;20529;-80
2021/10/08 11:49:56;;;;;;;13.37;10.47;;;29.90;1.00;;;;;;5049049;28;20500;-78
2021/10/08 11:52:31;;;;;;;19.37;10.37;;;30.00;1.00;;;;;;5042563;28;20603;-78
2021/10/08 11:55:06;;;;;;;13.20;11.20;;;30.60;1.00;;;;;;5041945;28;20469;-78
2021/10/08 11:57:50;;;;;;;14.10;8.63;;;31.40;1.00;;;;;;5040077;28;20445;-78
2021/10/08 12:00:17;;;;;;;12.40;9.40;;;31.70;1.00;;;;;;5039036;28;21091;-80
2021/10/08 12:02:57;;;;;;;11.90;9.93;;;31.70;1.00;;;;;;5033890;28;20428;-78
2021/10/08 12:05:24;;;;;;;12.40;9.87;;;32.00;1.00;;;;;;5034379;28;20462;-79
2021/10/08 12:07:57;;;;;;;15.57;10.27;;;32.40;1.00;;;;;;5028413;28;20464;-79
2021/10/08 12:10:24;;;;;;;13.13;9.10;;;31.10;1.00;;;;;;5052399;28;21392;-79
2021/10/08 12:12:52;;;;;;;14.60;9.57;;;29.60;1.00;;;;;;5042599;28;20516;-79
2021/10/08 12:15:23;;;;;;;14.00;10.20;;;28.10;1.00;;;;;;5043633;28;20879;-79
2021/10/08 12:17:50;;;;;;;14.27;9.23;;;27.40;1.00;;;;;;5038894;28;23435;-78
2021/10/08 12:20:21;;;;;;;14.50;11.23;;;27.60;1.00;;;;;;5044201;28;20460;-79
2021/10/08 12:22:48;;;;;;;17.17;11.53;;;27.70;1.00;;;;;;5044966;28;20448;-77
2021/10/08 12:25:21;;;;;;;13.87;9.90;;;27.70;1.00;;;;;;5041794;28;21023;-79
2021/10/08 12:27:51;;;;;;;15.77;10.07;;;27.60;1.00;;;;;;5025954;28;20452;-78
2021/10/08 12:30:18;;;;;;;11.80;8.97;;;27.70;1.00;;;;;;5031839;28;20460;-78
2021/10/08 12:33:00;;;;;;;16.70;10.10;;;27.60;1.00;;;;;;5046045;28;20424;-77
2021/10/08 12:35:28;;;;;;;14.50;10.00;;;27.70;1.00;;;;;;5042074;28;20488;-78
2021/10/08 12:38:01;;;;;;;12.03;9.77;;;28.20;1.00;;;;;;5048134;28;20441;-78
2021/10/08 12:40:28;;;;;;;15.17;9.13;;;27.30;1.00;;;;;;5043714;28;20473;-79
2021/10/08 12:42:55;;;;;;;15.37;11.73;;;25.80;1.00;;;;;;5038725;28;20617;-79
2021/10/08 12:45:29;;;;;;;13.73;10.50;;;24.40;1.00;;;;;;5041892;28;20474;-79